Terminal Aerodrome Forecast
Issued by NWS

Home | Current Version | Previous Version | Graphics & Text | Print | Product List | Glossary On
Versions: 1 2 3 4 5 6 7 8 9 10 11 12 13 14 15 16
000
FTUS43 KICT 301239 AAA
TAFHUT
TAF AMD
KHUT 301239Z 3013/3112 04005KT P6SM BKN100
     FM301700 15005KT P6SM BKN050
     FM310200 VRB05KT P6SM VCTS SCT015 BKN035CB
     FM310600 04005KT P6SM SCT015 BKN070
     FM310900 VRB05KT 3SM BR SCT015 BKN040=

USA.gov is the U.S. government's official web portal to all federal, state and local government web resources and services.